sensor_id;sensor_type;location;lat;lon;timestamp;P1;durP1;ratioP1;P2;durP2;ratioP2
14292;SDS011;62290;59.420;17.842;2022-10-23T00:01:12;2.50;;;2.00;;
14292;SDS011;62290;59.420;17.842;2022-10-23T00:03:41;2.33;;;2.03;;
14292;SDS011;62290;59.420;17.842;2022-10-23T00:06:10;2.35;;;1.90;;
14292;SDS011;62290;59.420;17.842;2022-10-23T00:08:39;3.50;;;1.90;;
14292;SDS011;62290;59.420;17.842;2022-10-23T00:11:08;3.15;;;1.80;;
14292;SDS011;62290;59.420;17.842;2022-10-23T00:13:37;2.35;;;2.15;;
14292;SDS011;62290;59.420;17.842;2022-10-23T00:16:05;1.80;;;1.67;;
14292;SDS011;62290;59.420;17.842;2022-10-23T00:18:36;2.17;;;1.83;;
14292;SDS011;62290;59.420;17.842;2022-10-23T00:21:05;2.35;;;2.13;;
14292;SDS011;62290;59.420;17.842;2022-10-23T00:23:36;2.70;;;1.98;;
14292;SDS011;62290;59.420;17.842;2022-10-23T00:26:06;3.30;;;1.90;;
14292;SDS011;62290;59.420;17.842;2022-10-23T00:28:36;2.92;;;1.60;;
14292;SDS011;62290;59.420;17.842;2022-10-23T00:31:04;1.90;;;1.70;;
14292;SDS011;62290;59.420;17.842;2022-10-23T00:33:32;3.08;;;2.00;;
14292;SDS011;62290;59.420;17.842;2022-10-23T00:36:03;2.45;;;1.80;;
14292;SDS011;62290;59.420;17.842;2022-10-23T00:38:32;1.80;;;1.70;;
14292;SDS011;62290;59.420;17.842;2022-10-23T00:41:01;2.03;;;1.60;;
14292;SDS011;62290;59.420;17.842;2022-10-23T00:43:29;2.03;;;1.75;;
14292;SDS011;62290;59.420;17.842;2022-10-23T00:45:58;2.58;;;2.00;;
14292;SDS011;62290;59.420;17.842;2022-10-23T00:48:26;3.35;;;2.25;;
14292;SDS011;62290;59.420;17.842;2022-10-23T00:50:55;3.30;;;1.77;;
14292;SDS011;62290;59.420;17.842;2022-10-23T00:53:24;1.70;;;1.60;;
14292;SDS011;62290;59.420;17.842;2022-10-23T00:55:52;2.22;;;1.90;;
14292;SDS011;62290;59.420;17.842;2022-10-23T00:58:23;2.30;;;2.08;;
14292;SDS011;62290;59.420;17.842;2022-10-23T01:00:51;3.70;;;2.20;;
14292;SDS011;62290;59.420;17.842;2022-10-23T01:03:22;3.40;;;2.05;;
14292;SDS011;62290;59.420;17.842;2022-10-23T01:05:53;2.63;;;1.95;;
14292;SDS011;62290;59.420;17.842;2022-10-23T01:08:38;2.30;;;2.08;;
14292;SDS011;62290;59.420;17.842;2022-10-23T01:11:11;3.10;;;2.25;;
14292;SDS011;62290;59.420;17.842;2022-10-23T01:13:42;3.20;;;2.13;;
14292;SDS011;62290;59.420;17.842;2022-10-23T01:16:17;2.17;;;1.98;;
14292;SDS011;62290;59.420;17.842;2022-10-23T01:18:52;2.83;;;2.03;;
14292;SDS011;62290;59.420;17.842;2022-10-23T01:21:27;2.50;;;2.30;;
14292;SDS011;62290;59.420;17.842;2022-10-23T01:24:07;5.40;;;1.90;;
14292;SDS011;62290;59.420;17.842;2022-10-23T01:26:49;2.33;;;1.58;;
14292;SDS011;62290;59.420;17.842;2022-10-23T01:29:26;3.22;;;2.05;;
14292;SDS011;62290;59.420;17.842;2022-10-23T01:32:01;2.28;;;2.08;;
14292;SDS011;62290;59.420;17.842;2022-10-23T01:34:35;4.38;;;2.58;;
14292;SDS011;62290;59.420;17.842;2022-10-23T01:37:09;2.72;;;2.20;;
14292;SDS011;62290;59.420;17.842;2022-10-23T01:39:43;2.85;;;2.00;;
14292;SDS011;62290;59.420;17.842;2022-10-23T01:42:15;2.85;;;2.15;;
14292;SDS011;62290;59.420;17.842;2022-10-23T01:44:48;3.40;;;1.85;;
14292;SDS011;62290;59.420;17.842;2022-10-23T01:47:20;2.88;;;2.17;;
14292;SDS011;62290;59.420;17.842;2022-10-23T01:49:59;2.92;;;2.03;;
14292;SDS011;62290;59.420;17.842;2022-10-23T01:52:29;2.88;;;2.13;;
14292;SDS011;62290;59.420;17.842;2022-10-23T01:54:58;2.53;;;1.95;;
14292;SDS011;62290;59.420;17.842;2022-10-23T01:57:30;2.55;;;1.98;;
14292;SDS011;62290;59.420;17.842;2022-10-23T02:00:03;2.53;;;2.10;;
14292;SDS011;62290;59.420;17.842;2022-10-23T02:02:49;2.67;;;2.33;;
14292;SDS011;62290;59.420;17.842;2022-10-23T02:05:23;2.20;;;1.88;;
14292;SDS011;62290;59.420;17.842;2022-10-23T02:07:54;3.28;;;2.17;;
14292;SDS011;62290;59.420;17.842;2022-10-23T02:10:22;2.35;;;1.90;;
14292;SDS011;62290;59.420;17.842;2022-10-23T02:12:59;2.80;;;2.00;;
14292;SDS011;62290;59.420;17.842;2022-10-23T02:15:32;2.80;;;2.13;;
14292;SDS011;62290;59.420;17.842;2022-10-23T02:18:06;2.30;;;1.90;;
14292;SDS011;62290;59.420;17.842;2022-10-23T02:20:42;2.53;;;2.10;;
14292;SDS011;62290;59.420;17.842;2022-10-23T02:23:14;3.20;;;2.20;;
14292;SDS011;62290;59.420;17.842;2022-10-23T02:25:49;4.10;;;2.20;;
14292;SDS011;62290;59.420;17.842;2022-10-23T02:28:22;2.72;;;2.03;;
14292;SDS011;62290;59.420;17.842;2022-10-23T02:30:58;2.70;;;2.00;;
14292;SDS011;62290;59.420;17.842;2022-10-23T02:33:29;3.28;;;2.15;;
14292;SDS011;62290;59.420;17.842;2022-10-23T02:35:58;2.70;;;1.90;;
14292;SDS011;62290;59.420;17.842;2022-10-23T02:38:34;3.15;;;2.38;;
14292;SDS011;62290;59.420;17.842;2022-10-23T02:41:12;2.63;;;2.25;;
14292;SDS011;62290;59.420;17.842;2022-10-23T02:43:49;2.88;;;2.15;;
14292;SDS011;62290;59.420;17.842;2022-10-23T02:46:27;3.10;;;2.13;;
14292;SDS011;62290;59.420;17.842;2022-10-23T02:49:04;3.20;;;2.25;;
14292;SDS011;62290;59.420;17.842;2022-10-23T02:51:42;2.10;;;1.90;;
14292;SDS011;62290;59.420;17.842;2022-10-23T02:54:37;2.70;;;2.10;;
14292;SDS011;62290;59.420;17.842;2022-10-23T02:57:14;2.90;;;2.20;;
14292;SDS011;62290;59.420;17.842;2022-10-23T02:59:51;3.53;;;2.22;;
14292;SDS011;62290;59.420;17.842;2022-10-23T03:02:27;2.95;;;2.28;;
14292;SDS011;62290;59.420;17.842;2022-10-23T03:05:02;3.75;;;2.45;;
14292;SDS011;62290;59.420;17.842;2022-10-23T03:07:32;2.70;;;2.20;;
14292;SDS011;62290;59.420;17.842;2022-10-23T03:10:04;2.67;;;2.05;;
14292;SDS011;62290;59.420;17.842;2022-10-23T03:12:34;2.55;;;2.10;;
14292;SDS011;62290;59.420;17.842;2022-10-23T03:15:04;2.90;;;2.15;;
14292;SDS011;62290;59.420;17.842;2022-10-23T03:17:34;3.35;;;2.45;;
14292;SDS011;62290;59.420;17.842;2022-10-23T03:20:02;3.15;;;2.00;;
14292;SDS011;62290;59.420;17.842;2022-10-23T03:22:30;2.58;;;2.13;;
14292;SDS011;62290;59.420;17.842;2022-10-23T03:24:59;2.80;;;2.08;;
14292;SDS011;62290;59.420;17.842;2022-10-23T03:27:29;4.50;;;1.95;;
14292;SDS011;62290;59.420;17.842;2022-10-23T03:30:01;2.90;;;2.00;;
14292;SDS011;62290;59.420;17.842;2022-10-23T03:32:30;3.63;;;2.33;;
14292;SDS011;62290;59.420;17.842;2022-10-23T03:34:59;2.67;;;2.17;;
14292;SDS011;62290;59.420;17.842;2022-10-23T03:37:28;2.97;;;2.28;;
14292;SDS011;62290;59.420;17.842;2022-10-23T03:39:55;2.88;;;2.33;;
14292;SDS011;62290;59.420;17.842;2022-10-23T03:42:24;3.47;;;2.33;;
14292;SDS011;62290;59.420;17.842;2022-10-23T03:44:51;2.95;;;2.30;;
14292;SDS011;62290;59.420;17.842;2022-10-23T03:47:19;2.35;;;2.13;;
14292;SDS011;62290;59.420;17.842;2022-10-23T03:49:47;2.95;;;2.03;;
14292;SDS011;62290;59.420;17.842;2022-10-23T03:52:17;2.53;;;2.22;;
14292;SDS011;62290;59.420;17.842;2022-10-23T03:54:45;2.33;;;2.00;;
14292;SDS011;62290;59.420;17.842;2022-10-23T03:57:14;2.13;;;1.92;;
14292;SDS011;62290;59.420;17.842;2022-10-23T03:59:42;2.92;;;2.33;;
14292;SDS011;62290;59.420;17.842;2022-10-23T04:02:10;3.00;;;2.05;;
14292;SDS011;62290;59.420;17.842;2022-10-23T04:04:38;3.95;;;2.40;;
14292;SDS011;62290;59.420;17.842;2022-10-23T04:07:06;3.88;;;2.33;;
14292;SDS011;62290;59.420;17.842;2022-10-23T04:09:35;8.05;;;2.00;;
14292;SDS011;62290;59.420;17.842;2022-10-23T04:12:04;2.45;;;2.10;;
14292;SDS011;62290;59.420;17.842;2022-10-23T04:14:32;2.72;;;2.10;;
14292;SDS011;62290;59.420;17.842;2022-10-23T04:17:01;3.08;;;2.30;;
14292;SDS011;62290;59.420;17.842;2022-10-23T04:19:29;4.22;;;2.38;;
14292;SDS011;62290;59.420;17.842;2022-10-23T04:21:57;2.55;;;2.20;;
14292;SDS011;62290;59.420;17.842;2022-10-23T04:24:25;3.13;;;2.60;;
14292;SDS011;62290;59.420;17.842;2022-10-23T04:26:55;2.85;;;2.50;;
14292;SDS011;62290;59.420;17.842;2022-10-23T04:29:25;3.47;;;2.33;;
14292;SDS011;62290;59.420;17.842;2022-10-23T04:31:57;2.55;;;2.25;;
14292;SDS011;62290;59.420;17.842;2022-10-23T04:34:25;3.30;;;2.40;;
14292;SDS011;62290;59.420;17.842;2022-10-23T04:36:53;2.35;;;1.83;;
14292;SDS011;62290;59.420;17.842;2022-10-23T04:39:21;2.83;;;2.30;;
14292;SDS011;62290;59.420;17.842;2022-10-23T04:41:49;3.22;;;2.40;;
14292;SDS011;62290;59.420;17.842;2022-10-23T04:44:19;2.58;;;2.38;;
14292;SDS011;62290;59.420;17.842;2022-10-23T04:46:47;4.07;;;2.03;;
14292;SDS011;62290;59.420;17.842;2022-10-23T04:49:15;2.42;;;2.10;;
14292;SDS011;62290;59.420;17.842;2022-10-23T04:52:02;3.75;;;2.47;;
14292;SDS011;62290;59.420;17.842;2022-10-23T04:54:44;3.65;;;2.38;;
14292;SDS011;62290;59.420;17.842;2022-10-23T04:57:25;2.90;;;2.40;;
14292;SDS011;62290;59.420;17.842;2022-10-23T05:00:05;2.80;;;2.35;;
14292;SDS011;62290;59.420;17.842;2022-10-23T05:02:42;3.03;;;2.35;;
14292;SDS011;62290;59.420;17.842;2022-10-23T05:05:12;3.30;;;2.05;;
14292;SDS011;62290;59.420;17.842;2022-10-23T05:07:53;2.10;;;1.88;;
14292;SDS011;62290;59.420;17.842;2022-10-23T05:10:37;7.68;;;2.22;;
14292;SDS011;62290;59.420;17.842;2022-10-23T05:13:12;2.88;;;2.10;;
14292;SDS011;62290;59.420;17.842;2022-10-23T05:15:41;3.20;;;2.22;;
14292;SDS011;62290;59.420;17.842;2022-10-23T05:18:10;2.45;;;2.10;;
14292;SDS011;62290;59.420;17.842;2022-10-23T05:20:42;2.78;;;2.30;;
14292;SDS011;62290;59.420;17.842;2022-10-23T05:23:13;3.17;;;2.22;;
14292;SDS011;62290;59.420;17.842;2022-10-23T05:25:52;4.10;;;2.33;;
14292;SDS011;62290;59.420;17.842;2022-10-23T05:28:20;2.78;;;2.08;;
14292;SDS011;62290;59.420;17.842;2022-10-23T05:30:51;3.55;;;2.42;;
14292;SDS011;62290;59.420;17.842;2022-10-23T05:33:23;2.25;;;2.05;;
14292;SDS011;62290;59.420;17.842;2022-10-23T05:35:51;3.63;;;2.30;;
14292;SDS011;62290;59.420;17.842;2022-10-23T05:38:21;2.60;;;2.20;;
14292;SDS011;62290;59.420;17.842;2022-10-23T05:40:50;3.60;;;2.80;;
14292;SDS011;62290;59.420;17.842;2022-10-23T05:43:20;3.30;;;2.10;;
14292;SDS011;62290;59.420;17.842;2022-10-23T05:45:55;2.63;;;2.20;;
14292;SDS011;62290;59.420;17.842;2022-10-23T05:48:44;2.92;;;2.10;;
14292;SDS011;62290;59.420;17.842;2022-10-23T05:51:35;2.60;;;2.40;;
14292;SDS011;62290;59.420;17.842;2022-10-23T05:54:18;2.58;;;2.20;;
14292;SDS011;62290;59.420;17.842;2022-10-23T05:56:55;2.38;;;2.13;;
14292;SDS011;62290;59.420;17.842;2022-10-23T05:59:52;2.65;;;2.30;;
14292;SDS011;62290;59.420;17.842;2022-10-23T06:02:40;2.47;;;1.83;;
14292;SDS011;62290;59.420;17.842;2022-10-23T06:05:31;2.20;;;1.98;;
14292;SDS011;62290;59.420;17.842;2022-10-23T06:08:20;3.25;;;2.22;;
14292;SDS011;62290;59.420;17.842;2022-10-23T06:10:50;3.30;;;2.70;;
14292;SDS011;62290;59.420;17.842;2022-10-23T06:13:18;4.22;;;2.65;;
14292;SDS011;62290;59.420;17.842;2022-10-23T06:15:46;2.67;;;2.30;;
14292;SDS011;62290;59.420;17.842;2022-10-23T06:18:19;2.85;;;2.20;;
14292;SDS011;62290;59.420;17.842;2022-10-23T06:20:53;2.40;;;2.17;;
14292;SDS011;62290;59.420;17.842;2022-10-23T06:23:25;2.22;;;2.00;;
14292;SDS011;62290;59.420;17.842;2022-10-23T06:26:09;2.42;;;2.22;;
14292;SDS011;62290;59.420;17.842;2022-10-23T06:28:58;4.07;;;2.65;;
14292;SDS011;62290;59.420;17.842;2022-10-23T06:31:26;4.40;;;2.10;;
14292;SDS011;62290;59.420;17.842;2022-10-23T06:33:57;2.50;;;2.20;;
14292;SDS011;62290;59.420;17.842;2022-10-23T06:36:27;3.28;;;2.25;;
14292;SDS011;62290;59.420;17.842;2022-10-23T06:39:13;3.35;;;2.75;;
14292;SDS011;62290;59.420;17.842;2022-10-23T06:41:52;2.80;;;2.15;;
14292;SDS011;62290;59.420;17.842;2022-10-23T06:44:58;3.50;;;2.50;;
14292;SDS011;62290;59.420;17.842;2022-10-23T06:47:51;2.90;;;2.33;;
14292;SDS011;62290;59.420;17.842;2022-10-23T06:50:39;3.55;;;2.10;;
14292;SDS011;62290;59.420;17.842;2022-10-23T06:53:11;3.40;;;2.25;;
14292;SDS011;62290;59.420;17.842;2022-10-23T06:55:45;2.72;;;2.30;;
14292;SDS011;62290;59.420;17.842;2022-10-23T06:58:18;2.72;;;2.20;;
14292;SDS011;62290;59.420;17.842;2022-10-23T07:00:58;2.80;;;2.50;;
14292;SDS011;62290;59.420;17.842;2022-10-23T07:03:27;2.58;;;2.20;;
14292;SDS011;62290;59.420;17.842;2022-10-23T07:05:59;2.22;;;2.03;;
14292;SDS011;62290;59.420;17.842;2022-10-23T07:08:28;2.22;;;2.03;;
14292;SDS011;62290;59.420;17.842;2022-10-23T07:10:56;11.93;;;2.30;;
14292;SDS011;62290;59.420;17.842;2022-10-23T07:13:28;2.80;;;1.98;;
14292;SDS011;62290;59.420;17.842;2022-10-23T07:16:07;4.57;;;2.10;;
14292;SDS011;62290;59.420;17.842;2022-10-23T07:18:37;3.80;;;2.30;;
14292;SDS011;62290;59.420;17.842;2022-10-23T07:21:25;2.72;;;2.10;;
14292;SDS011;62290;59.420;17.842;2022-10-23T07:23:57;3.00;;;2.30;;
14292;SDS011;62290;59.420;17.842;2022-10-23T07:26:26;2.47;;;1.85;;
14292;SDS011;62290;59.420;17.842;2022-10-23T07:28:55;2.22;;;2.03;;
14292;SDS011;62290;59.420;17.842;2022-10-23T07:31:24;2.65;;;2.45;;
14292;SDS011;62290;59.420;17.842;2022-10-23T07:34:12;2.67;;;2.10;;
14292;SDS011;62290;59.420;17.842;2022-10-23T07:36:42;2.33;;;1.90;;
14292;SDS011;62290;59.420;17.842;2022-10-23T07:39:11;2.72;;;2.22;;
14292;SDS011;62290;59.420;17.842;2022-10-23T07:41:46;3.95;;;2.20;;
14292;SDS011;62290;59.420;17.842;2022-10-23T07:44:14;2.40;;;1.92;;
14292;SDS011;62290;59.420;17.842;2022-10-23T07:46:42;4.25;;;1.90;;
14292;SDS011;62290;59.420;17.842;2022-10-23T07:49:10;2.60;;;2.13;;
14292;SDS011;62290;59.420;17.842;2022-10-23T07:51:38;2.50;;;2.30;;
14292;SDS011;62290;59.420;17.842;2022-10-23T07:54:09;2.60;;;2.28;;
14292;SDS011;62290;59.420;17.842;2022-10-23T07:56:41;3.03;;;2.00;;
14292;SDS011;62290;59.420;17.842;2022-10-23T07:59:38;2.55;;;2.00;;
14292;SDS011;62290;59.420;17.842;2022-10-23T08:02:09;2.17;;;1.95;;
14292;SDS011;62290;59.420;17.842;2022-10-23T08:04:38;2.15;;;1.80;;
14292;SDS011;62290;59.420;17.842;2022-10-23T08:07:18;2.50;;;1.70;;
14292;SDS011;62290;59.420;17.842;2022-10-23T08:09:49;2.53;;;2.28;;
14292;SDS011;62290;59.420;17.842;2022-10-23T08:12:17;2.90;;;2.00;;
14292;SDS011;62290;59.420;17.842;2022-10-23T08:14:45;4.00;;;2.20;;
14292;SDS011;62290;59.420;17.842;2022-10-23T08:17:13;2.55;;;2.05;;
14292;SDS011;62290;59.420;17.842;2022-10-23T08:20:01;2.75;;;1.88;;
14292;SDS011;62290;59.420;17.842;2022-10-23T08:22:36;2.22;;;2.03;;
14292;SDS011;62290;59.420;17.842;2022-10-23T08:25:06;2.63;;;2.15;;
14292;SDS011;62290;59.420;17.842;2022-10-23T08:27:35;2.15;;;1.95;;
14292;SDS011;62290;59.420;17.842;2022-10-23T08:30:03;2.25;;;1.98;;
14292;SDS011;62290;59.420;17.842;2022-10-23T08:32:31;3.65;;;2.00;;
14292;SDS011;62290;59.420;17.842;2022-10-23T08:35:01;2.42;;;2.10;;
14292;SDS011;62290;59.420;17.842;2022-10-23T08:37:32;2.60;;;1.95;;
14292;SDS011;62290;59.420;17.842;2022-10-23T08:40:00;3.55;;;2.20;;
14292;SDS011;62290;59.420;17.842;2022-10-23T08:42:56;2.58;;;1.92;;
14292;SDS011;62290;59.420;17.842;2022-10-23T08:45:29;1.80;;;1.70;;
14292;SDS011;62290;59.420;17.842;2022-10-23T08:48:09;2.55;;;2.05;;
14292;SDS011;62290;59.420;17.842;2022-10-23T08:51:20;2.10;;;1.88;;
14292;SDS011;62290;59.420;17.842;2022-10-23T08:53:53;2.40;;;2.00;;
14292;SDS011;62290;59.420;17.842;2022-10-23T08:56:27;7.43;;;2.10;;
14292;SDS011;62290;59.420;17.842;2022-10-23T08:59:03;4.53;;;2.95;;
14292;SDS011;62290;59.420;17.842;2022-10-23T09:01:40;21.42;;;8.52;;
14292;SDS011;62290;59.420;17.842;2022-10-23T09:04:12;68.18;;;32.13;;
14292;SDS011;62290;59.420;17.842;2022-10-23T09:06:43;45.60;;;18.40;;
14292;SDS011;62290;59.420;17.842;2022-10-23T09:09:23;38.72;;;14.50;;
14292;SDS011;62290;59.420;17.842;2022-10-23T09:12:06;19.45;;;9.20;;
14292;SDS011;62290;59.420;17.842;2022-10-23T09:14:45;15.90;;;8.13;;
14292;SDS011;62290;59.420;17.842;2022-10-23T09:17:22;12.25;;;5.88;;
14292;SDS011;62290;59.420;17.842;2022-10-23T09:19:53;11.02;;;5.60;;
14292;SDS011;62290;59.420;17.842;2022-10-23T09:22:26;9.45;;;5.35;;
14292;SDS011;62290;59.420;17.842;2022-10-23T09:24:55;10.73;;;5.13;;
14292;SDS011;62290;59.420;17.842;2022-10-23T09:27:23;8.40;;;4.50;;
14292;SDS011;62290;59.420;17.842;2022-10-23T09:29:53;8.60;;;4.18;;
14292;SDS011;62290;59.420;17.842;2022-10-23T09:32:31;6.40;;;4.22;;
14292;SDS011;62290;59.420;17.842;2022-10-23T09:34:59;7.30;;;4.03;;
14292;SDS011;62290;59.420;17.842;2022-10-23T09:37:28;10.48;;;3.72;;
14292;SDS011;62290;59.420;17.842;2022-10-23T09:40:00;8.02;;;3.03;;
14292;SDS011;62290;59.420;17.842;2022-10-23T09:42:54;7.80;;;3.38;;
14292;SDS011;62290;59.420;17.842;2022-10-23T09:45:26;5.53;;;2.92;;
14292;SDS011;62290;59.420;17.842;2022-10-23T09:48:05;7.05;;;2.97;;
14292;SDS011;62290;59.420;17.842;2022-10-23T09:50:41;5.22;;;3.00;;
14292;SDS011;62290;59.420;17.842;2022-10-23T09:53:18;5.38;;;2.80;;
14292;SDS011;62290;59.420;17.842;2022-10-23T09:55:53;3.47;;;2.65;;
14292;SDS011;62290;59.420;17.842;2022-10-23T09:58:26;9.63;;;3.03;;
14292;SDS011;62290;59.420;17.842;2022-10-23T10:00:59;5.45;;;2.20;;
14292;SDS011;62290;59.420;17.842;2022-10-23T10:03:47;4.32;;;2.25;;
14292;SDS011;62290;59.420;17.842;2022-10-23T10:06:20;4.75;;;2.60;;
14292;SDS011;62290;59.420;17.842;2022-10-23T10:08:51;3.20;;;1.75;;
14292;SDS011;62290;59.420;17.842;2022-10-23T10:11:23;2.75;;;1.85;;
14292;SDS011;62290;59.420;17.842;2022-10-23T10:14:00;2.67;;;1.75;;
14292;SDS011;62290;59.420;17.842;2022-10-23T10:16:43;2.60;;;1.77;;
14292;SDS011;62290;59.420;17.842;2022-10-23T10:19:22;2.22;;;1.73;;
14292;SDS011;62290;59.420;17.842;2022-10-23T10:22:00;1.90;;;1.70;;
14292;SDS011;62290;59.420;17.842;2022-10-23T10:24:40;2.13;;;1.67;;
14292;SDS011;62290;59.420;17.842;2022-10-23T10:27:19;3.40;;;1.90;;
14292;SDS011;62290;59.420;17.842;2022-10-23T10:30:01;2.95;;;2.00;;
14292;SDS011;62290;59.420;17.842;2022-10-23T10:32:39;2.67;;;1.70;;
14292;SDS011;62290;59.420;17.842;2022-10-23T10:35:19;1.73;;;1.50;;
14292;SDS011;62290;59.420;17.842;2022-10-23T10:37:56;2.55;;;1.75;;
14292;SDS011;62290;59.420;17.842;2022-10-23T10:40:37;2.47;;;1.40;;
14292;SDS011;62290;59.420;17.842;2022-10-23T10:43:11;3.15;;;1.65;;
14292;SDS011;62290;59.420;17.842;2022-10-23T10:45:52;3.03;;;2.00;;
14292;SDS011;62290;59.420;17.842;2022-10-23T10:48:29;2.42;;;1.55;;
14292;SDS011;62290;59.420;17.842;2022-10-23T10:51:25;1.75;;;1.38;;
14292;SDS011;62290;59.420;17.842;2022-10-23T10:54:01;2.35;;;1.42;;
14292;SDS011;62290;59.420;17.842;2022-10-23T10:56:43;2.58;;;1.55;;
14292;SDS011;62290;59.420;17.842;2022-10-23T10:59:13;2.08;;;1.38;;
14292;SDS011;62290;59.420;17.842;2022-10-23T11:01:49;1.83;;;1.20;;
14292;SDS011;62290;59.420;17.842;2022-10-23T11:04:27;2.08;;;1.42;;
14292;SDS011;62290;59.420;17.842;2022-10-23T11:07:00;2.17;;;1.20;;
14292;SDS011;62290;59.420;17.842;2022-10-23T11:09:34;4.85;;;1.90;;
14292;SDS011;62290;59.420;17.842;2022-10-23T11:12:02;1.85;;;1.45;;
14292;SDS011;62290;59.420;17.842;2022-10-23T11:14:31;2.47;;;1.38;;
14292;SDS011;62290;59.420;17.842;2022-10-23T11:17:02;3.70;;;1.90;;
14292;SDS011;62290;59.420;17.842;2022-10-23T11:19:39;2.75;;;1.23;;
14292;SDS011;62290;59.420;17.842;2022-10-23T11:22:11;2.95;;;1.67;;
14292;SDS011;62290;59.420;17.842;2022-10-23T11:24:57;5.30;;;1.80;;
14292;SDS011;62290;59.420;17.842;2022-10-23T11:27:56;14.73;;;4.55;;
14292;SDS011;62290;59.420;17.842;2022-10-23T11:30:38;12.32;;;3.25;;
14292;SDS011;62290;59.420;17.842;2022-10-23T11:33:27;9.25;;;2.88;;
14292;SDS011;62290;59.420;17.842;2022-10-23T11:36:31;7.72;;;2.95;;
14292;SDS011;62290;59.420;17.842;2022-10-23T11:39:13;10.63;;;2.42;;
14292;SDS011;62290;59.420;17.842;2022-10-23T11:41:49;4.65;;;1.90;;
14292;SDS011;62290;59.420;17.842;2022-10-23T11:47:25;2.75;;;1.77;;
14292;SDS011;62290;59.420;17.842;2022-10-23T11:50:11;3.28;;;1.60;;
14292;SDS011;62290;59.420;17.842;2022-10-23T11:52:53;2.78;;;1.38;;
14292;SDS011;62290;59.420;17.842;2022-10-23T11:55:39;2.67;;;1.55;;
14292;SDS011;62290;59.420;17.842;2022-10-23T11:58:26;3.45;;;1.60;;
14292;SDS011;62290;59.420;17.842;2022-10-23T12:00:59;2.60;;;1.40;;
14292;SDS011;62290;59.420;17.842;2022-10-23T12:03:40;2.63;;;1.65;;
14292;SDS011;62290;59.420;17.842;2022-10-23T12:06:20;1.85;;;1.30;;
14292;SDS011;62290;59.420;17.842;2022-10-23T12:08:53;1.17;;;1.02;;
14292;SDS011;62290;59.420;17.842;2022-10-23T12:11:39;2.97;;;1.55;;
14292;SDS011;62290;59.420;17.842;2022-10-23T12:14:29;2.95;;;1.55;;
14292;SDS011;62290;59.420;17.842;2022-10-23T12:17:17;3.10;;;1.42;;
14292;SDS011;62290;59.420;17.842;2022-10-23T12:20:00;1.70;;;1.40;;
14292;SDS011;62290;59.420;17.842;2022-10-23T12:22:31;2.42;;;1.23;;
14292;SDS011;62290;59.420;17.842;2022-10-23T12:25:07;1.50;;;1.13;;
14292;SDS011;62290;59.420;17.842;2022-10-23T12:27:41;1.92;;;1.42;;
14292;SDS011;62290;59.420;17.842;2022-10-23T12:30:19;2.00;;;1.10;;
14292;SDS011;62290;59.420;17.842;2022-10-23T12:32:55;1.65;;;1.25;;
14292;SDS011;62290;59.420;17.842;2022-10-23T12:38:29;3.33;;;1.08;;
14292;SDS011;62290;59.420;17.842;2022-10-23T12:41:07;1.80;;;1.30;;
14292;SDS011;62290;59.420;17.842;2022-10-23T12:43:39;1.65;;;1.30;;
14292;SDS011;62290;59.420;17.842;2022-10-23T12:49:11;1.95;;;1.20;;
14292;SDS011;62290;59.420;17.842;2022-10-23T12:51:41;1.70;;;1.10;;
14292;SDS011;62290;59.420;17.842;2022-10-23T12:54:14;1.30;;;1.13;;
14292;SDS011;62290;59.420;17.842;2022-10-23T12:56:44;5.85;;;2.13;;
14292;SDS011;62290;59.420;17.842;2022-10-23T12:59:13;1.60;;;1.05;;
14292;SDS011;62290;59.420;17.842;2022-10-23T13:01:43;4.88;;;1.48;;
14292;SDS011;62290;59.420;17.842;2022-10-23T13:04:21;4.20;;;1.50;;
14292;SDS011;62290;59.420;17.842;2022-10-23T13:06:54;12.43;;;4.30;;
14292;SDS011;62290;59.420;17.842;2022-10-23T13:09:26;74.43;;;31.65;;
14292;SDS011;62290;59.420;17.842;2022-10-23T13:12:22;771.00;;;435.83;;
14292;SDS011;62290;59.420;17.842;2022-10-23T13:14:54;580.70;;;338.92;;
14292;SDS011;62290;59.420;17.842;2022-10-23T13:17:32;566.25;;;360.88;;
14292;SDS011;62290;59.420;17.842;2022-10-23T13:20:07;503.10;;;326.42;;
14292;SDS011;62290;59.420;17.842;2022-10-23T13:22:38;645.15;;;453.42;;
14292;SDS011;62290;59.420;17.842;2022-10-23T13:25:23;830.53;;;581.75;;
14292;SDS011;62290;59.420;17.842;2022-10-23T13:28:03;805.17;;;571.47;;
14292;SDS011;62290;59.420;17.842;2022-10-23T13:30:39;820.78;;;598.90;;
14292;SDS011;62290;59.420;17.842;2022-10-23T13:33:12;797.08;;;571.65;;
14292;SDS011;62290;59.420;17.842;2022-10-23T13:35:41;654.60;;;474.60;;
14292;SDS011;62290;59.420;17.842;2022-10-23T13:38:09;556.88;;;397.17;;
14292;SDS011;62290;59.420;17.842;2022-10-23T13:40:37;473.65;;;321.30;;
14292;SDS011;62290;59.420;17.842;2022-10-23T13:43:09;399.27;;;250.05;;
14292;SDS011;62290;59.420;17.842;2022-10-23T13:45:41;319.75;;;197.10;;
14292;SDS011;62290;59.420;17.842;2022-10-23T13:48:09;254.45;;;152.60;;
14292;SDS011;62290;59.420;17.842;2022-10-23T13:50:40;211.98;;;130.43;;
14292;SDS011;62290;59.420;17.842;2022-10-23T13:53:08;178.88;;;109.30;;
14292;SDS011;62290;59.420;17.842;2022-10-23T13:55:39;145.23;;;90.20;;
14292;SDS011;62290;59.420;17.842;2022-10-23T13:58:11;129.15;;;81.70;;
14292;SDS011;62290;59.420;17.842;2022-10-23T14:00:39;118.57;;;70.97;;
14292;SDS011;62290;59.420;17.842;2022-10-23T14:03:09;93.97;;;60.03;;
14292;SDS011;62290;59.420;17.842;2022-10-23T14:05:37;94.18;;;55.38;;
14292;SDS011;62290;59.420;17.842;2022-10-23T14:08:05;84.53;;;52.15;;
14292;SDS011;62290;59.420;17.842;2022-10-23T14:10:35;76.30;;;48.17;;
14292;SDS011;62290;59.420;17.842;2022-10-23T14:13:02;65.32;;;40.83;;
14292;SDS011;62290;59.420;17.842;2022-10-23T14:15:32;66.65;;;40.97;;
14292;SDS011;62290;59.420;17.842;2022-10-23T14:18:00;63.20;;;40.50;;
14292;SDS011;62290;59.420;17.842;2022-10-23T14:20:33;56.08;;;35.25;;
14292;SDS011;62290;59.420;17.842;2022-10-23T14:23:01;53.45;;;32.97;;
14292;SDS011;62290;59.420;17.842;2022-10-23T14:25:29;48.80;;;30.67;;
14292;SDS011;62290;59.420;17.842;2022-10-23T14:27:57;42.13;;;28.20;;
14292;SDS011;62290;59.420;17.842;2022-10-23T14:30:25;38.97;;;26.08;;
14292;SDS011;62290;59.420;17.842;2022-10-23T14:32:54;32.55;;;21.98;;
14292;SDS011;62290;59.420;17.842;2022-10-23T14:35:22;32.83;;;20.85;;
14292;SDS011;62290;59.420;17.842;2022-10-23T14:37:51;28.45;;;18.58;;
14292;SDS011;62290;59.420;17.842;2022-10-23T14:40:19;27.23;;;17.50;;
14292;SDS011;62290;59.420;17.842;2022-10-23T14:42:47;29.67;;;17.88;;
14292;SDS011;62290;59.420;17.842;2022-10-23T14:45:15;26.58;;;17.20;;
14292;SDS011;62290;59.420;17.842;2022-10-23T14:47:43;27.25;;;18.30;;
14292;SDS011;62290;59.420;17.842;2022-10-23T14:50:13;25.40;;;16.33;;
14292;SDS011;62290;59.420;17.842;2022-10-23T14:52:43;24.40;;;16.15;;
14292;SDS011;62290;59.420;17.842;2022-10-23T14:55:11;22.05;;;15.23;;
14292;SDS011;62290;59.420;17.842;2022-10-23T14:57:39;19.70;;;13.75;;
14292;SDS011;62290;59.420;17.842;2022-10-23T15:00:08;20.63;;;14.02;;
14292;SDS011;62290;59.420;17.842;2022-10-23T15:02:37;20.67;;;13.68;;
14292;SDS011;62290;59.420;17.842;2022-10-23T15:05:05;20.60;;;12.45;;
14292;SDS011;62290;59.420;17.842;2022-10-23T15:07:35;18.25;;;11.90;;
14292;SDS011;62290;59.420;17.842;2022-10-23T15:10:03;17.08;;;11.38;;
14292;SDS011;62290;59.420;17.842;2022-10-23T15:12:31;19.58;;;10.18;;
14292;SDS011;62290;59.420;17.842;2022-10-23T15:14:59;15.40;;;10.45;;
14292;SDS011;62290;59.420;17.842;2022-10-23T15:17:27;14.00;;;10.00;;